Master — WCY6528 — position and weather

sailwx.info

Track history (hours):
 
Tides and Currents Weather Stations Pressure Air Temp Water Temp Dewpoint Dewpoint Depression Visibility Wind Speed Wind Dir Waves Ship Positions

Master

Owner: Crowley Marine Services, SEATTLE, WA. More information available from US FCC via Universal Licensing System and Coast Guard Vessel Documentation Center.

Last reported at 2018-Feb-06 02:46 UTC. Time now 2018-Feb-19 01:46 UTC.
Position N 33°44' W 118°16'.
Warning: this ship's position is 12 days out of date.

Length 30 m; draft 5.3 m.

Type: Tug. MMSI: 366755010.

Date/timePositionNaut miles runAvg speedWind from/ knotsBaromVisibWave heightAir tempDewpointWater temp
2018-Feb-06 02:46N 33°44' W 118°16'1 3.0
2018-Feb-06 02:30N 33°43' W 118°16'1 1.2
2018-Feb-06 02:00N 33°44' W 118°17'0 0.0
2018-Feb-06 00:30N 33°44' W 118°17'0 0.0
2018-Feb-06 00:00N 33°44' W 118°17'0 0.0
2018-Feb-05 22:30N 33°44' W 118°17'0 0.0
2018-Feb-05 21:00N 33°44' W 118°17'1 0.3
2018-Feb-05 19:00N 33°44' W 118°17'0 0.0
2018-Feb-05 16:00N 33°44' W 118°17'0 0.0
2018-Feb-05 13:30N 33°44' W 118°17'2 3.7
2018-Feb-05 13:00N 33°46' W 118°15'0 0.2
2018-Feb-05 12:00N 33°46' W 118°15'1 2.6
2018-Feb-05 11:30N 33°45' W 118°16'2 4.9
2018-Feb-05 11:00N 33°43' W 118°15'2 1.1
2018-Feb-05 09:00N 33°44' W 118°17'0 0.5
2018-Feb-05 08:30N 33°44' W 118°17'1 1.9
2018-Feb-05 08:00N 33°43' W 118°16'2 4.1
2018-Feb-05 07:30N 33°45' W 118°16'0 0.0
2018-Feb-05 07:00N 33°45' W 118°16'0 0.2
2018-Feb-05 06:30N 33°45' W 118°16'2 1.9
2018-Feb-05 05:30N 33°43' W 118°16'2 4.7
2018-Feb-05 05:00N 33°44' W 118°13'2 4.4
2018-Feb-05 04:30N 33°46' W 118°13'1 1.2
2018-Feb-05 04:00N 33°46' W 118°14'0 0.4
2018-Feb-05 03:30N 33°46' W 118°14'1 2.7
2018-Feb-05 03:00N 33°45' W 118°13'0 0.0
2018-Feb-05 02:30N 33°45' W 118°13'0 0.3
2018-Feb-05 02:00N 33°45' W 118°13'1 2.8
2018-Feb-05 01:30N 33°46' W 118°13'0 0.2
2018-Feb-05 01:01N 33°46' W 118°13'0 0.4
2018-Feb-05 00:30N 33°46' W 118°13'3 5.4
2018-Feb-05 00:00N 33°44' W 118°14'2 4.6
2018-Feb-04 23:30N 33°44' W 118°16'1 1.3
2018-Feb-04 23:01N 33°44' W 118°17'0 0.0
2018-Feb-04 22:30N 33°44' W 118°17'2 4.2
2018-Feb-04 22:00N 33°43' W 118°15'3 5.8
2018-Feb-04 21:30N 33°45' W 118°13'1 2.1
2018-Feb-04 21:00N 33°46' W 118°13'0 0.0
2018-Feb-04 20:00N 33°46' W 118°13'1 1.0
2018-Feb-04 19:30N 33°46' W 118°13'2 3.7
2018-Feb-04 19:00N 33°44' W 118°12'0 0.7
2018-Feb-04 18:30N 33°44' W 118°12'2 3.0
2018-Feb-04 18:00N 33°43' W 118°14'2 4.9
2018-Feb-04 17:30N 33°44' W 118°17'1 0.6
2018-Feb-04 15:30N 33°45' W 118°17'1 1.9
2018-Feb-04 15:00N 33°44' W 118°17'0 0.0
2018-Feb-04 14:30N 33°44' W 118°17'0 0.0
2018-Feb-04 14:00N 33°44' W 118°17'0 0.0
2018-Feb-04 13:30N 33°44' W 118°17'0 0.0
2018-Feb-04 13:00N 33°44' W 118°17'0 0.0
2018-Feb-04 12:31N 33°44' W 118°17'0 0.0
2018-Feb-04 12:00N 33°44' W 118°17'0 0.0
2018-Feb-04 11:30N 33°44' W 118°17'0 0.0
2018-Feb-04 10:00N 33°44' W 118°17'0 0.0
2018-Feb-04 09:00N 33°44' W 118°17'0 0.0
2018-Feb-04 08:30N 33°44' W 118°17'0 0.0
2018-Feb-04 08:00N 33°44' W 118°17'0 0.0
2018-Feb-04 07:30N 33°44' W 118°17'0 0.0
2018-Feb-04 07:00N 33°44' W 118°17'0 0.0
2018-Feb-04 06:30N 33°44' W 118°17'0 0.0
2018-Feb-04 06:01N 33°44' W 118°17'0 0.0
2018-Feb-04 05:30N 33°44' W 118°17'0 0.0
2018-Feb-04 05:00N 33°44' W 118°17'0 0.0
2018-Feb-04 04:30N 33°44' W 118°17'0 0.0
2018-Feb-04 04:00N 33°44' W 118°17'0 0.0
2018-Feb-04 03:30N 33°44' W 118°17'1 2.5
2018-Feb-04 03:00N 33°46' W 118°16'0 0.8
2018-Feb-04 02:30N 33°45' W 118°16'2 4.2
2018-Feb-04 02:00N 33°43' W 118°16'3 5.9
2018-Feb-04 01:30N 33°45' W 118°13'2 3.4
2018-Feb-04 01:00N 33°46' W 118°13'1 1.4
2018-Feb-04 00:30N 33°46' W 118°13'3 5.6
2018-Feb-04 00:00N 33°43' W 118°14'2 5.0
2018-Feb-03 23:30N 33°44' W 118°17'0 0.0
2018-Feb-03 22:59N 33°44' W 118°17'0 0.0
2018-Feb-03 22:30N 33°44' W 118°17'0 0.0
2018-Feb-03 22:00N 33°44' W 118°17'0 0.0
2018-Feb-03 21:29N 33°44' W 118°17'0 0.0
2018-Feb-03 21:00N 33°44' W 118°17'0 0.0
2018-Feb-03 20:30N 33°44' W 118°17'0 0.0
2018-Feb-03 20:00N 33°44' W 118°17'0 0.0
2018-Feb-03 18:31N 33°44' W 118°17'0 0.0
2018-Feb-03 18:00N 33°44' W 118°17'0 0.0
2018-Feb-03 17:31N 33°44' W 118°17'0 0.0
2018-Feb-03 17:00N 33°44' W 118°17'0 0.0
2018-Feb-03 16:00N 33°44' W 118°17'0 0.0
2018-Feb-03 15:30N 33°44' W 118°17'0 0.0
2018-Feb-03 15:00N 33°44' W 118°17'0 0.0
2018-Feb-03 14:30N 33°44' W 118°17'0 0.0
2018-Feb-03 14:00N 33°44' W 118°17'0 0.0
2018-Feb-03 13:30N 33°44' W 118°17'0 0.0
2018-Feb-03 13:01N 33°44' W 118°17'0 0.0
2018-Feb-03 12:30N 33°44' W 118°17'0 0.0
2018-Feb-03 12:00N 33°44' W 118°17'0 0.0
2018-Feb-03 11:30N 33°44' W 118°17'0 0.0
2018-Feb-03 11:00N 33°44' W 118°17'0 0.0
2018-Feb-03 10:30N 33°44' W 118°17'0 0.0
2018-Feb-03 10:00N 33°44' W 118°17'0 0.0
2018-Feb-03 09:30N 33°44' W 118°17'0 0.0
2018-Feb-03 09:00N 33°44' W 118°17'0 0.0
2018-Feb-03 08:30N 33°44' W 118°17'0 0.0
2018-Feb-03 08:01N 33°44' W 118°17'0 0.0
2018-Feb-03 06:30N 33°44' W 118°17'0 0.0
2018-Feb-03 06:00N 33°44' W 118°17'0 0.0
2018-Feb-03 05:30N 33°44' W 118°17'0 0.0
2018-Feb-03 05:01N 33°44' W 118°17'0 0.0
2018-Feb-03 03:59N 33°44' W 118°17'0 0.0
2018-Feb-03 03:30N 33°44' W 118°17'0 0.0
2018-Feb-03 02:00N 33°44' W 118°17'0 0.9
2018-Feb-03 01:30N 33°44' W 118°17'2 4.7
2018-Feb-03 01:00N 33°46' W 118°15'0 0.7
2018-Feb-03 00:31N 33°46' W 118°15'2 3.4
2018-Feb-03 00:00N 33°44' W 118°17'1 2.7
2018-Feb-02 23:31N 33°43' W 118°16'3 5.6
2018-Feb-02 23:01N 33°43' W 118°13'1 1.6
2018-Feb-02 22:30N 33°44' W 118°12'1 2.5
2018-Feb-02 22:00N 33°43' W 118°13'3 5.3
2018-Feb-02 21:30N 33°44' W 118°16'1 1.6
2018-Feb-02 21:00N 33°44' W 118°17'0 0.0
2018-Feb-02 20:31N 33°44' W 118°17'0 0.1
2018-Feb-02 20:00N 33°44' W 118°17'4 3.7
2018-Feb-02 19:00N 33°46' W 118°13'0 0.5
2018-Feb-02 18:30N 33°46' W 118°13'1 2.8
2018-Feb-02 18:01N 33°45' W 118°13'2 3.7
2018-Feb-02 17:30N 33°44' W 118°12'1 1.0
2018-Feb-02 17:00N 33°44' W 118°12'1 2.8
2018-Feb-02 16:30N 33°45' W 118°13'0 0.0
2018-Feb-02 15:30N 33°45' W 118°13'1 0.9
2018-Feb-02 14:30N 33°45' W 118°14'2 3.0
2018-Feb-02 14:00N 33°44' W 118°12'2 2.8
2018-Feb-02 13:23N 33°44' W 118°11'0 0.2
2018-Feb-02 12:57N 33°44' W 118°10'2 5.4
2018-Feb-02 12:30N 33°43' W 118°13'3 5.1
2018-Feb-02 12:00N 33°44' W 118°16'1 1.3
2018-Feb-02 11:30N 33°44' W 118°17'0 0.0
2018-Feb-02 11:01N 33°44' W 118°17'0 0.0
2018-Feb-02 10:30N 33°44' W 118°17'0 0.0
2018-Feb-02 10:00N 33°44' W 118°17'0 0.0
2018-Feb-02 09:30N 33°44' W 118°17'0 0.0
2018-Feb-02 09:00N 33°44' W 118°17'0 0.0
2018-Feb-02 08:30N 33°44' W 118°17'0 0.0
2018-Feb-02 08:00N 33°44' W 118°17'0 0.0
2018-Feb-02 07:30N 33°44' W 118°17'0 0.1
2018-Feb-02 07:00N 33°44' W 118°17'0 0.1
2018-Feb-02 06:30N 33°44' W 118°17'0 0.0
2018-Feb-02 06:00N 33°44' W 118°17'0 0.0
2018-Feb-02 05:31N 33°44' W 118°17'0 0.0
2018-Feb-02 05:00N 33°44' W 118°17'0 0.0
2018-Feb-02 04:31N 33°44' W 118°17'0 0.0
2018-Feb-02 04:01N 33°44' W 118°17'0 0.0
2018-Feb-02 03:30N 33°44' W 118°17'0 0.0
2018-Feb-02 03:00N 33°44' W 118°17'0 0.0
2018-Feb-02 02:30N 33°44' W 118°17'0 0.0
2018-Feb-02 02:01N 33°44' W 118°17'0 0.0
2018-Feb-02 01:30N 33°44' W 118°17'0 0.0
2018-Feb-02 01:00N 33°44' W 118°17'0 0.0
2018-Feb-02 00:30N 33°44' W 118°17'0 0.0
2018-Feb-02 00:00N 33°44' W 118°17'0 0.0
2018-Feb-01 23:30N 33°44' W 118°17'0 0.0
2018-Feb-01 23:00N 33°44' W 118°17'0 0.0
2018-Feb-01 22:00N 33°44' W 118°17'0 0.0
2018-Feb-01 21:31N 33°44' W 118°17'0 0.0
2018-Feb-01 19:30N 33°44' W 118°17'0 0.0
2018-Feb-01 19:00N 33°44' W 118°17'0 0.0
2018-Feb-01 18:30N 33°44' W 118°17'0 0.0
2018-Feb-01 18:00N 33°44' W 118°17'0 0.0
2018-Feb-01 17:29N 33°44' W 118°17'0 0.0
2018-Feb-01 17:00N 33°44' W 118°17'0 0.0
2018-Feb-01 16:30N 33°44' W 118°17'0 0.0
2018-Feb-01 16:00N 33°44' W 118°17'0 0.0
2018-Feb-01 15:31N 33°44' W 118°17'0 0.7
2018-Feb-01 15:00N 33°44' W 118°17'3 2.3
2018-Feb-01 13:30N 33°44' W 118°12'1 1.2
2018-Feb-01 12:56N 33°44' W 118°12'1 1.9
2018-Feb-01 12:29N 33°43' W 118°13'3 5.9
2018-Feb-01 12:00N 33°43' W 118°16'1 1.5
2018-Feb-01 11:00N 33°44' W 118°17'0 0.0
2018-Feb-01 10:30N 33°44' W 118°17'0 0.0
2018-Feb-01 10:01N 33°44' W 118°17'0 0.0
2018-Feb-01 09:30N 33°44' W 118°17'0 0.0
2018-Feb-01 09:00N 33°44' W 118°17'0 0.0
2018-Feb-01 08:30N 33°44' W 118°17'0 0.0
2018-Feb-01 07:31N 33°44' W 118°17'0 0.0
2018-Feb-01 07:00N 33°44' W 118°17'0 0.0
2018-Feb-01 06:30N 33°44' W 118°17'0 0.0
2018-Feb-01 06:00N 33°44' W 118°17'0 0.0
2018-Feb-01 05:30N 33°44' W 118°17'0 0.0
2018-Feb-01 05:00N 33°44' W 118°17'0 0.0
2018-Feb-01 04:30N 33°44' W 118°17'0 0.5
2018-Feb-01 04:00N 33°44' W 118°17'3 3.1
2018-Feb-01 03:00N 33°44' W 118°13'0 0.7
2018-Feb-01 02:31N 33°44' W 118°12'4 7.7
2018-Feb-01 01:56N 33°40' W 118°10'4 8.9
2018-Feb-01 01:30N 33°37' W 118°08'6 8.8
2018-Feb-01 00:53N 33°32' W 118°04'3 8.8
2018-Feb-01 00:30N 33°29' W 118°02'4 8.6
2018-Feb-01 00:00N 33°26' W 117°59'9 8.7
2018-Jan-31 23:00N 33°19' W 117°53'4 8.4
2018-Jan-31 22:30N 33°15' W 117°50'13 8.5
2018-Jan-31 21:01N 33°05' W 117°42'4 8.5
2018-Jan-31 20:30N 33°01' W 117°39'4 8.5
2018-Jan-31 20:00N 32°58' W 117°36'4 8.5
2018-Jan-31 19:31N 32°54' W 117°33'4 8.6
2018-Jan-31 19:00N 32°51' W 117°30'4 8.8
2018-Jan-31 18:30N 32°47' W 117°27'4 8.8
2018-Jan-31 18:00N 32°44' W 117°24'4 8.9
2018-Jan-31 17:30N 32°40' W 117°21'5 8.8
2018-Jan-31 16:59N 32°38' W 117°16'  
2018-Jan-28 07:50N 32°40' W 117°21'3 9.0
2018-Jan-28 07:30N 32°42' W 117°23'4 9.0
2018-Jan-28 07:01N 32°45' W 117°26'5 9.1
2018-Jan-28 06:30N 32°49' W 117°29'4 9.0
2018-Jan-28 06:00N 32°53' W 117°32'5 9.0
2018-Jan-28 05:30N 32°57' W 117°35'4 9.0
2018-Jan-28 05:01N 33°00' W 117°38'4 8.9
2018-Jan-28 04:31N 33°04' W 117°41'4 8.9
2018-Jan-28 04:00N 33°08' W 117°44'4 8.9
2018-Jan-28 03:30N 33°11' W 117°47'5 9.0
2018-Jan-28 03:00N 33°15' W 117°50'4 9.0
2018-Jan-28 02:30N 33°19' W 117°54'4 9.0
2018-Jan-28 02:01N 33°22' W 117°57'5 9.0
2018-Jan-28 01:28N 33°27' W 117°60'4 9.0
2018-Jan-28 01:00N 33°30' W 118°02'6 9.1
2018-Jan-28 00:21N 33°35' W 118°07'3 8.8
2018-Jan-28 00:00N 33°37' W 118°09'4 8.7
2018-Jan-27 23:30N 33°40' W 118°13'4 8.5
2018-Jan-27 23:00N 33°43' W 118°16'1 2.4
2018-Jan-27 22:30N 33°44' W 118°17'0 0.0
2018-Jan-27 22:00N 33°44' W 118°17'0 0.0
2018-Jan-27 21:30N 33°44' W 118°17'2 4.6
2018-Jan-27 21:00N 33°43' W 118°15'2 5.0
2018-Jan-27 20:31N 33°44' W 118°12'1 2.4
2018-Jan-27 20:00N 33°45' W 118°12'0 0.6
2018-Jan-27 19:30N 33°45' W 118°13'0 0.8
2018-Jan-27 19:00N 33°45' W 118°13'0 0.1
2018-Jan-27 18:30N 33°45' W 118°13'0 0.7
2018-Jan-27 18:00N 33°45' W 118°13'1 2.1
2018-Jan-27 17:31N 33°46' W 118°13'1 2.6
2018-Jan-27 17:00N 33°45' W 118°13'2 4.0
2018-Jan-27 16:31N 33°44' W 118°11'1 1.5
2018-Jan-27 16:01N 33°44' W 118°12'1 2.4
2018-Jan-27 15:30N 33°45' W 118°13'0 0.0
2018-Jan-27 15:01N 33°45' W 118°13'0 0.1
2018-Jan-27 14:30N 33°45' W 118°13'0 0.1
2018-Jan-27 14:01N 33°45' W 118°13'0 0.0
2018-Jan-27 13:30N 33°45' W 118°13'0 0.0
2018-Jan-27 13:00N 33°45' W 118°13'1 1.8
2018-Jan-27 12:30N 33°46' W 118°13'1 1.0
2018-Jan-27 12:00N 33°46' W 118°14'0 0.9
2018-Jan-27 11:30N 33°46' W 118°13'3 6.6
2018-Jan-27 11:00N 33°43' W 118°15'2 4.6
2018-Jan-27 10:31N 33°44' W 118°17'0 0.0
2018-Jan-27 10:00N 33°44' W 118°17'0 0.0
2018-Jan-27 09:30N 33°44' W 118°17'0 0.0
2018-Jan-27 09:00N 33°44' W 118°17'0 0.0
2018-Jan-27 08:30N 33°44' W 118°17'1 1.8
2018-Jan-27 08:00N 33°45' W 118°16'0 0.1
2018-Jan-27 07:30N 33°45' W 118°16'1 2.2
2018-Jan-27 07:00N 33°44' W 118°17'4 7.1
2018-Jan-27 06:29N 33°41' W 118°14'1 2.7
2018-Jan-27 06:01N 33°42' W 118°15'3 5.7
2018-Jan-27 05:30N 33°44' W 118°17'0 0.0
2018-Jan-27 05:00N 33°44' W 118°17'0 0.0
2018-Jan-27 04:30N 33°44' W 118°17'0 0.0
2018-Jan-27 02:55N 33°44' W 118°17'  
Track history (hours):
 
Tides and Currents Weather Stations Pressure Air Temp Water Temp Dewpoint Dewpoint Depression Visibility Wind Speed Wind Dir Waves Ship Positions

Master

Owner: Crowley Marine Services, SEATTLE, WA. More information available from US FCC via Universal Licensing System and Coast Guard Vessel Documentation Center.

Last reported at 2018-Feb-06 02:46 UTC. Time now 2018-Feb-19 01:46 UTC.
Position N 33°44' W 118°16'.
Warning: this ship's position is 12 days out of date.

Length 30 m; draft 5.3 m.

Type: Tug. MMSI: 366755010.

Date/timePositionNaut miles runAvg speedWind from/ knotsBaromVisibWave heightAir tempDewpointWater temp
2018-Feb-06 02:46N 33°44' W 118°16'1 3.0
2018-Feb-06 02:30N 33°43' W 118°16'1 1.2
2018-Feb-06 02:00N 33°44' W 118°17'0 0.0
2018-Feb-06 00:30N 33°44' W 118°17'0 0.0
2018-Feb-06 00:00N 33°44' W 118°17'0 0.0
2018-Feb-05 22:30N 33°44' W 118°17'0 0.0
2018-Feb-05 21:00N 33°44' W 118°17'1 0.3
2018-Feb-05 19:00N 33°44' W 118°17'0 0.0
2018-Feb-05 16:00N 33°44' W 118°17'0 0.0
2018-Feb-05 13:30N 33°44' W 118°17'2 3.7
2018-Feb-05 13:00N 33°46' W 118°15'0 0.2
2018-Feb-05 12:00N 33°46' W 118°15'1 2.6
2018-Feb-05 11:30N 33°45' W 118°16'2 4.9
2018-Feb-05 11:00N 33°43' W 118°15'2 1.1
2018-Feb-05 09:00N 33°44' W 118°17'0 0.5
2018-Feb-05 08:30N 33°44' W 118°17'1 1.9
2018-Feb-05 08:00N 33°43' W 118°16'2 4.1
2018-Feb-05 07:30N 33°45' W 118°16'0 0.0
2018-Feb-05 07:00N 33°45' W 118°16'0 0.2
2018-Feb-05 06:30N 33°45' W 118°16'2 1.9
2018-Feb-05 05:30N 33°43' W 118°16'2 4.7
2018-Feb-05 05:00N 33°44' W 118°13'2 4.4
2018-Feb-05 04:30N 33°46' W 118°13'1 1.2
2018-Feb-05 04:00N 33°46' W 118°14'0 0.4
2018-Feb-05 03:30N 33°46' W 118°14'1 2.7
2018-Feb-05 03:00N 33°45' W 118°13'0 0.0
2018-Feb-05 02:30N 33°45' W 118°13'0 0.3
2018-Feb-05 02:00N 33°45' W 118°13'1 2.8
2018-Feb-05 01:30N 33°46' W 118°13'0 0.2
2018-Feb-05 01:01N 33°46' W 118°13'0 0.4
2018-Feb-05 00:30N 33°46' W 118°13'3 5.4
2018-Feb-05 00:00N 33°44' W 118°14'2 4.6
2018-Feb-04 23:30N 33°44' W 118°16'1 1.3
2018-Feb-04 23:01N 33°44' W 118°17'0 0.0
2018-Feb-04 22:30N 33°44' W 118°17'2 4.2
2018-Feb-04 22:00N 33°43' W 118°15'3 5.8
2018-Feb-04 21:30N 33°45' W 118°13'1 2.1
2018-Feb-04 21:00N 33°46' W 118°13'0 0.0
2018-Feb-04 20:00N 33°46' W 118°13'1 1.0
2018-Feb-04 19:30N 33°46' W 118°13'2 3.7
2018-Feb-04 19:00N 33°44' W 118°12'0 0.7
2018-Feb-04 18:30N 33°44' W 118°12'2 3.0
2018-Feb-04 18:00N 33°43' W 118°14'2 4.9
2018-Feb-04 17:30N 33°44' W 118°17'1 0.6
2018-Feb-04 15:30N 33°45' W 118°17'1 1.9
2018-Feb-04 15:00N 33°44' W 118°17'0 0.0
2018-Feb-04 14:30N 33°44' W 118°17'0 0.0
2018-Feb-04 14:00N 33°44' W 118°17'0 0.0
2018-Feb-04 13:30N 33°44' W 118°17'0 0.0
2018-Feb-04 13:00N 33°44' W 118°17'0 0.0
2018-Feb-04 12:31N 33°44' W 118°17'0 0.0
2018-Feb-04 12:00N 33°44' W 118°17'0 0.0
2018-Feb-04 11:30N 33°44' W 118°17'0 0.0
2018-Feb-04 10:00N 33°44' W 118°17'0 0.0
2018-Feb-04 09:00N 33°44' W 118°17'0 0.0
2018-Feb-04 08:30N 33°44' W 118°17'0 0.0
2018-Feb-04 08:00N 33°44' W 118°17'0 0.0
2018-Feb-04 07:30N 33°44' W 118°17'0 0.0
2018-Feb-04 07:00N 33°44' W 118°17'0 0.0
2018-Feb-04 06:30N 33°44' W 118°17'0 0.0
2018-Feb-04 06:01N 33°44' W 118°17'0 0.0
2018-Feb-04 05:30N 33°44' W 118°17'0 0.0
2018-Feb-04 05:00N 33°44' W 118°17'0 0.0
2018-Feb-04 04:30N 33°44' W 118°17'0 0.0
2018-Feb-04 04:00N 33°44' W 118°17'0 0.0
2018-Feb-04 03:30N 33°44' W 118°17'1 2.5
2018-Feb-04 03:00N 33°46' W 118°16'0 0.8
2018-Feb-04 02:30N 33°45' W 118°16'2 4.2
2018-Feb-04 02:00N 33°43' W 118°16'3 5.9
2018-Feb-04 01:30N 33°45' W 118°13'2 3.4
2018-Feb-04 01:00N 33°46' W 118°13'1 1.4
2018-Feb-04 00:30N 33°46' W 118°13'3 5.6
2018-Feb-04 00:00N 33°43' W 118°14'2 5.0
2018-Feb-03 23:30N 33°44' W 118°17'0 0.0
2018-Feb-03 22:59N 33°44' W 118°17'0 0.0
2018-Feb-03 22:30N 33°44' W 118°17'0 0.0
2018-Feb-03 22:00N 33°44' W 118°17'0 0.0
2018-Feb-03 21:29N 33°44' W 118°17'0 0.0
2018-Feb-03 21:00N 33°44' W 118°17'0 0.0
2018-Feb-03 20:30N 33°44' W 118°17'0 0.0
2018-Feb-03 20:00N 33°44' W 118°17'0 0.0
2018-Feb-03 18:31N 33°44' W 118°17'0 0.0
2018-Feb-03 18:00N 33°44' W 118°17'0 0.0
2018-Feb-03 17:31N 33°44' W 118°17'0 0.0
2018-Feb-03 17:00N 33°44' W 118°17'0 0.0
2018-Feb-03 16:00N 33°44' W 118°17'0 0.0
2018-Feb-03 15:30N 33°44' W 118°17'0 0.0
2018-Feb-03 15:00N 33°44' W 118°17'0 0.0
2018-Feb-03 14:30N 33°44' W 118°17'0 0.0
2018-Feb-03 14:00N 33°44' W 118°17'0 0.0
2018-Feb-03 13:30N 33°44' W 118°17'0 0.0
2018-Feb-03 13:01N 33°44' W 118°17'0 0.0
2018-Feb-03 12:30N 33°44' W 118°17'0 0.0
2018-Feb-03 12:00N 33°44' W 118°17'0 0.0
2018-Feb-03 11:30N 33°44' W 118°17'0 0.0
2018-Feb-03 11:00N 33°44' W 118°17'0 0.0
2018-Feb-03 10:30N 33°44' W 118°17'0 0.0
2018-Feb-03 10:00N 33°44' W 118°17'0 0.0
2018-Feb-03 09:30N 33°44' W 118°17'0 0.0
2018-Feb-03 09:00N 33°44' W 118°17'0 0.0
2018-Feb-03 08:30N 33°44' W 118°17'0 0.0
2018-Feb-03 08:01N 33°44' W 118°17'0 0.0
2018-Feb-03 06:30N 33°44' W 118°17'0 0.0
2018-Feb-03 06:00N 33°44' W 118°17'0 0.0
2018-Feb-03 05:30N 33°44' W 118°17'0 0.0
2018-Feb-03 05:01N 33°44' W 118°17'0 0.0
2018-Feb-03 03:59N 33°44' W 118°17'0 0.0
2018-Feb-03 03:30N 33°44' W 118°17'0 0.0
2018-Feb-03 02:00N 33°44' W 118°17'0 0.9
2018-Feb-03 01:30N 33°44' W 118°17'2 4.7
2018-Feb-03 01:00N 33°46' W 118°15'0 0.7
2018-Feb-03 00:31N 33°46' W 118°15'2 3.4
2018-Feb-03 00:00N 33°44' W 118°17'1 2.7
2018-Feb-02 23:31N 33°43' W 118°16'3 5.6
2018-Feb-02 23:01N 33°43' W 118°13'1 1.6
2018-Feb-02 22:30N 33°44' W 118°12'1 2.5
2018-Feb-02 22:00N 33°43' W 118°13'3 5.3
2018-Feb-02 21:30N 33°44' W 118°16'1 1.6
2018-Feb-02 21:00N 33°44' W 118°17'0 0.0
2018-Feb-02 20:31N 33°44' W 118°17'0 0.1
2018-Feb-02 20:00N 33°44' W 118°17'4 3.7
2018-Feb-02 19:00N 33°46' W 118°13'0 0.5
2018-Feb-02 18:30N 33°46' W 118°13'1 2.8
2018-Feb-02 18:01N 33°45' W 118°13'2 3.7
2018-Feb-02 17:30N 33°44' W 118°12'1 1.0
2018-Feb-02 17:00N 33°44' W 118°12'1 2.8
2018-Feb-02 16:30N 33°45' W 118°13'0 0.0
2018-Feb-02 15:30N 33°45' W 118°13'1 0.9
2018-Feb-02 14:30N 33°45' W 118°14'2 3.0
2018-Feb-02 14:00N 33°44' W 118°12'2 2.8
2018-Feb-02 13:23N 33°44' W 118°11'0 0.2
2018-Feb-02 12:57N 33°44' W 118°10'2 5.4
2018-Feb-02 12:30N 33°43' W 118°13'3 5.1
2018-Feb-02 12:00N 33°44' W 118°16'1 1.3
2018-Feb-02 11:30N 33°44' W 118°17'0 0.0
2018-Feb-02 11:01N 33°44' W 118°17'0 0.0
2018-Feb-02 10:30N 33°44' W 118°17'0 0.0
2018-Feb-02 10:00N 33°44' W 118°17'0 0.0
2018-Feb-02 09:30N 33°44' W 118°17'0 0.0
2018-Feb-02 09:00N 33°44' W 118°17'0 0.0
2018-Feb-02 08:30N 33°44' W 118°17'0 0.0
2018-Feb-02 08:00N 33°44' W 118°17'0 0.0
2018-Feb-02 07:30N 33°44' W 118°17'0 0.1
2018-Feb-02 07:00N 33°44' W 118°17'0 0.1
2018-Feb-02 06:30N 33°44' W 118°17'0 0.0
2018-Feb-02 06:00N 33°44' W 118°17'0 0.0
2018-Feb-02 05:31N 33°44' W 118°17'0 0.0
2018-Feb-02 05:00N 33°44' W 118°17'0 0.0
2018-Feb-02 04:31N 33°44' W 118°17'0 0.0
2018-Feb-02 04:01N 33°44' W 118°17'0 0.0
2018-Feb-02 03:30N 33°44' W 118°17'0 0.0
2018-Feb-02 03:00N 33°44' W 118°17'0 0.0
2018-Feb-02 02:30N 33°44' W 118°17'0 0.0
2018-Feb-02 02:01N 33°44' W 118°17'0 0.0
2018-Feb-02 01:30N 33°44' W 118°17'0 0.0
2018-Feb-02 01:00N 33°44' W 118°17'0 0.0
2018-Feb-02 00:30N 33°44' W 118°17'0 0.0
2018-Feb-02 00:00N 33°44' W 118°17'0 0.0
2018-Feb-01 23:30N 33°44' W 118°17'0 0.0
2018-Feb-01 23:00N 33°44' W 118°17'0 0.0
2018-Feb-01 22:00N 33°44' W 118°17'0 0.0
2018-Feb-01 21:31N 33°44' W 118°17'0 0.0
2018-Feb-01 19:30N 33°44' W 118°17'0 0.0
2018-Feb-01 19:00N 33°44' W 118°17'0 0.0
2018-Feb-01 18:30N 33°44' W 118°17'0 0.0
2018-Feb-01 18:00N 33°44' W 118°17'0 0.0
2018-Feb-01 17:29N 33°44' W 118°17'0 0.0
2018-Feb-01 17:00N 33°44' W 118°17'0 0.0
2018-Feb-01 16:30N 33°44' W 118°17'0 0.0
2018-Feb-01 16:00N 33°44' W 118°17'0 0.0
2018-Feb-01 15:31N 33°44' W 118°17'0 0.7
2018-Feb-01 15:00N 33°44' W 118°17'3 2.3
2018-Feb-01 13:30N 33°44' W 118°12'1 1.2
2018-Feb-01 12:56N 33°44' W 118°12'1 1.9
2018-Feb-01 12:29N 33°43' W 118°13'3 5.9
2018-Feb-01 12:00N 33°43' W 118°16'1 1.5
2018-Feb-01 11:00N 33°44' W 118°17'0 0.0
2018-Feb-01 10:30N 33°44' W 118°17'0 0.0
2018-Feb-01 10:01N 33°44' W 118°17'0 0.0
2018-Feb-01 09:30N 33°44' W 118°17'0 0.0
2018-Feb-01 09:00N 33°44' W 118°17'0 0.0
2018-Feb-01 08:30N 33°44' W 118°17'0 0.0
2018-Feb-01 07:31N 33°44' W 118°17'0 0.0
2018-Feb-01 07:00N 33°44' W 118°17'0 0.0
2018-Feb-01 06:30N 33°44' W 118°17'0 0.0
2018-Feb-01 06:00N 33°44' W 118°17'0 0.0
2018-Feb-01 05:30N 33°44' W 118°17'0 0.0
2018-Feb-01 05:00N 33°44' W 118°17'0 0.0
2018-Feb-01 04:30N 33°44' W 118°17'0 0.5
2018-Feb-01 04:00N 33°44' W 118°17'3 3.1
2018-Feb-01 03:00N 33°44' W 118°13'0 0.7
2018-Feb-01 02:31N 33°44' W 118°12'4 7.7
2018-Feb-01 01:56N 33°40' W 118°10'4 8.9
2018-Feb-01 01:30N 33°37' W 118°08'6 8.8
2018-Feb-01 00:53N 33°32' W 118°04'3 8.8
2018-Feb-01 00:30N 33°29' W 118°02'4 8.6
2018-Feb-01 00:00N 33°26' W 117°59'9 8.7
2018-Jan-31 23:00N 33°19' W 117°53'4 8.4
2018-Jan-31 22:30N 33°15' W 117°50'13 8.5
2018-Jan-31 21:01N 33°05' W 117°42'4 8.5
2018-Jan-31 20:30N 33°01' W 117°39'4 8.5
2018-Jan-31 20:00N 32°58' W 117°36'4 8.5
2018-Jan-31 19:31N 32°54' W 117°33'4 8.6
2018-Jan-31 19:00N 32°51' W 117°30'4 8.8
2018-Jan-31 18:30N 32°47' W 117°27'4 8.8
2018-Jan-31 18:00N 32°44' W 117°24'4 8.9
2018-Jan-31 17:30N 32°40' W 117°21'5 8.8
2018-Jan-31 16:59N 32°38' W 117°16'  
2018-Jan-28 07:50N 32°40' W 117°21'3 9.0
2018-Jan-28 07:30N 32°42' W 117°23'4 9.0
2018-Jan-28 07:01N 32°45' W 117°26'5 9.1
2018-Jan-28 06:30N 32°49' W 117°29'4 9.0
2018-Jan-28 06:00N 32°53' W 117°32'5 9.0
2018-Jan-28 05:30N 32°57' W 117°35'4 9.0
2018-Jan-28 05:01N 33°00' W 117°38'4 8.9
2018-Jan-28 04:31N 33°04' W 117°41'4 8.9
2018-Jan-28 04:00N 33°08' W 117°44'4 8.9
2018-Jan-28 03:30N 33°11' W 117°47'5 9.0
2018-Jan-28 03:00N 33°15' W 117°50'4 9.0
2018-Jan-28 02:30N 33°19' W 117°54'4 9.0
2018-Jan-28 02:01N 33°22' W 117°57'5 9.0
2018-Jan-28 01:28N 33°27' W 117°60'4 9.0
2018-Jan-28 01:00N 33°30' W 118°02'6 9.1
2018-Jan-28 00:21N 33°35' W 118°07'3 8.8
2018-Jan-28 00:00N 33°37' W 118°09'4 8.7
2018-Jan-27 23:30N 33°40' W 118°13'4 8.5
2018-Jan-27 23:00N 33°43' W 118°16'1 2.4
2018-Jan-27 22:30N 33°44' W 118°17'0 0.0
2018-Jan-27 22:00N 33°44' W 118°17'0 0.0
2018-Jan-27 21:30N 33°44' W 118°17'2 4.6
2018-Jan-27 21:00N 33°43' W 118°15'2 5.0
2018-Jan-27 20:31N 33°44' W 118°12'1 2.4
2018-Jan-27 20:00N 33°45' W 118°12'0 0.6
2018-Jan-27 19:30N 33°45' W 118°13'0 0.8
2018-Jan-27 19:00N 33°45' W 118°13'0 0.1
2018-Jan-27 18:30N 33°45' W 118°13'0 0.7
2018-Jan-27 18:00N 33°45' W 118°13'1 2.1
2018-Jan-27 17:31N 33°46' W 118°13'1 2.6
2018-Jan-27 17:00N 33°45' W 118°13'2 4.0
2018-Jan-27 16:31N 33°44' W 118°11'1 1.5
2018-Jan-27 16:01N 33°44' W 118°12'1 2.4
2018-Jan-27 15:30N 33°45' W 118°13'0 0.0
2018-Jan-27 15:01N 33°45' W 118°13'0 0.1
2018-Jan-27 14:30N 33°45' W 118°13'0 0.1
2018-Jan-27 14:01N 33°45' W 118°13'0 0.0
2018-Jan-27 13:30N 33°45' W 118°13'0 0.0
2018-Jan-27 13:00N 33°45' W 118°13'1 1.8
2018-Jan-27 12:30N 33°46' W 118°13'1 1.0
2018-Jan-27 12:00N 33°46' W 118°14'0 0.9
2018-Jan-27 11:30N 33°46' W 118°13'3 6.6
2018-Jan-27 11:00N 33°43' W 118°15'2 4.6
2018-Jan-27 10:31N 33°44' W 118°17'0 0.0
2018-Jan-27 10:00N 33°44' W 118°17'0 0.0
2018-Jan-27 09:30N 33°44' W 118°17'0 0.0
2018-Jan-27 09:00N 33°44' W 118°17'0 0.0
2018-Jan-27 08:30N 33°44' W 118°17'1 1.8
2018-Jan-27 08:00N 33°45' W 118°16'0 0.1
2018-Jan-27 07:30N 33°45' W 118°16'1 2.2
2018-Jan-27 07:00N 33°44' W 118°17'4 7.1
2018-Jan-27 06:29N 33°41' W 118°14'1 2.7
2018-Jan-27 06:01N 33°42' W 118°15'3 5.7
2018-Jan-27 05:30N 33°44' W 118°17'0 0.0
2018-Jan-27 05:00N 33°44' W 118°17'0 0.0
2018-Jan-27 04:30N 33°44' W 118°17'0 0.0
2018-Jan-27 02:55N 33°44' W 118°17'  

Dump ship's entire track history